Time;durP1;ratioP1;P1;durP2;ratioP2;P2;SDS_P1;SDS_P2;PMS_P1;PMS_P2;Temp;Humidity;BMP_temperature;BMP_pressure;BME280_temperature;BME280_humidity;BME280_pressure;Samples;Min_cycle;Max_cycle;Signal;HPM_P1;HPM_P2
2023/08/24 00:00:05;;;;;;;4.93;2.42;;;;;;;;;;4970753;28;20024;-82
2023/08/24 00:02:31;;;;;;;5.13;2.35;;;;;;;;;;4923588;29;20047;-82
2023/08/24 00:04:57;;;;;;;9.25;2.72;;;;;;;;;;4907602;29;20036;-82
2023/08/24 00:07:24;;;;;;;6.80;2.30;;;;;;;;;;4941430;29;20571;-83
2023/08/24 00:09:52;;;;;;;9.13;2.80;;;;;;;;;;4937916;29;20032;-82
2023/08/24 00:12:18;;;;;;;5.68;2.50;;;;;;;;;;4938593;29;20096;-81
2023/08/24 00:14:43;;;;;;;7.70;2.90;;;;;;;;;;4923936;29;20058;-83
2023/08/24 00:17:08;;;;;;;7.88;2.97;;;;;;;;;;4925242;29;20078;-83
2023/08/24 00:19:34;;;;;;;6.65;2.33;;;;;;;;;;4959137;28;20043;-82
2023/08/24 00:22:00;;;;;;;6.78;2.80;;;;;;;;;;4944974;29;20107;-82
2023/08/24 00:24:25;;;;;;;7.38;2.67;;;;;;;;;;4958013;28;20079;-82
2023/08/24 00:26:51;;;;;;;9.52;2.92;;;;;;;;;;4946610;29;20106;-82
2023/08/24 00:29:17;;;;;;;6.03;2.58;;;;;;;;;;4948270;29;20074;-83
2023/08/24 00:31:42;;;;;;;7.93;2.60;;;;;;;;;;4956045;29;20042;-83
2023/08/24 00:34:08;;;;;;;7.60;3.40;;;;;;;;;;4957544;29;20040;-82
2023/08/24 00:36:34;;;;;;;6.95;3.17;;;;;;;;;;4942125;28;20042;-82
2023/08/24 00:39:00;;;;;;;6.10;3.03;;;;;;;;;;4944603;29;20051;-82
2023/08/24 00:41:27;;;;;;;4.63;2.97;;;;;;;;;;4959162;29;20024;-82
2023/08/24 00:43:53;;;;;;;10.68;3.10;;;;;;;;;;4959423;28;20040;-82
2023/08/24 00:46:19;;;;;;;6.82;2.88;;;;;;;;;;4975799;28;20032;-82
2023/08/24 00:48:46;;;;;;;7.63;3.10;;;;;;;;;;4927478;29;20517;-82
2023/08/24 00:51:12;;;;;;;4.43;2.42;;;;;;;;;;4942266;29;20484;-82
2023/08/24 00:53:38;;;;;;;7.10;3.35;;;;;;;;;;4941091;29;20044;-82
2023/08/24 00:56:05;;;;;;;5.47;2.88;;;;;;;;;;4957346;29;20035;-81
2023/08/24 00:58:31;;;;;;;6.15;3.00;;;;;;;;;;4956695;28;20036;-81
2023/08/24 01:00:57;;;;;;;8.60;3.13;;;;;;;;;;4945379;29;20035;-81
2023/08/24 01:03:23;;;;;;;10.93;3.85;;;;;;;;;;4958950;28;20039;-82
2023/08/24 01:05:51;;;;;;;8.13;3.45;;;;;;;;;;4925112;29;20054;-83
2023/08/24 01:08:17;;;;;;;5.88;3.40;;;;;;;;;;4957237;29;20395;-81
2023/08/24 01:10:46;;;;;;;6.25;3.25;;;;;;;;;;4940917;29;20035;-82
2023/08/24 01:13:11;;;;;;;;;;;;;;;;;;4940725;29;20475;-82
2023/08/24 01:15:41;;;;;;;6.60;3.53;;;;;;;;;;4961636;29;19911;-83
2023/08/24 01:18:13;;;;;;;7.03;3.17;;;;;;;;;;4945647;29;20058;-82
2023/08/24 01:20:40;;;;;;;8.43;3.28;;;;;;;;;;4941686;29;20056;-84
2023/08/24 01:23:20;;;;;;;5.60;2.90;;;;;;;;;;4959034;28;20043;-82
2023/08/24 01:25:54;;;;;;;8.38;3.60;;;;;;;;;;4957976;28;20099;-83
2023/08/24 01:28:21;;;;;;;6.93;3.28;;;;;;;;;;4949262;29;20046;-82
2023/08/24 01:30:47;;;;;;;7.32;3.50;;;;;;;;;;4992686;28;20054;-82
2023/08/24 01:33:13;;;;;;;5.85;3.22;;;;;;;;;;4950578;29;20040;-83
2023/08/24 01:35:39;;;;;;;8.73;3.88;;;;;;;;;;4958436;28;20036;-81
2023/08/24 01:38:06;;;;;;;5.47;3.50;;;;;;;;;;4942264;29;20035;-81
2023/08/24 01:40:50;;;;;;;6.43;3.35;;;;;;;;;;4943933;28;20042;-83
2023/08/24 01:43:18;;;;;;;8.32;2.97;;;;;;;;;;4942317;29;20035;-82
2023/08/24 01:45:44;;;;;;;6.20;3.10;;;;;;;;;;4957982;29;20444;-82
2023/08/24 01:48:10;;;;;;;6.22;3.25;;;;;;;;;;4926127;29;20094;-82
2023/08/24 01:50:36;;;;;;;9.30;3.75;;;;;;;;;;4943543;29;20044;-83
2023/08/24 01:53:02;;;;;;;7.35;3.70;;;;;;;;;;4931235;29;20395;-82
2023/08/24 01:55:28;;;;;;;5.38;3.60;;;;;;;;;;4950424;29;20023;-81
2023/08/24 01:57:56;;;;;;;6.55;3.47;;;;;;;;;;4937164;29;20152;-81
2023/08/24 02:00:22;;;;;;;8.52;3.50;;;;;;;;;;4946965;29;20027;-82
2023/08/24 02:02:47;;;;;;;9.05;3.92;;;;;;;;;;4960520;28;20036;-82
2023/08/24 02:05:13;;;;;;;7.07;3.80;;;;;;;;;;4925018;29;20115;-81
2023/08/24 02:07:39;;;;;;;7.63;3.35;;;;;;;;;;4943617;29;20542;-82
2023/08/24 02:10:05;;;;;;;6.53;3.55;;;;;;;;;;4941412;29;20372;-81
2023/08/24 02:12:31;;;;;;;5.68;3.63;;;;;;;;;;4941222;29;20035;-84
2023/08/24 02:14:56;;;;;;;9.95;3.70;;;;;;;;;;4939861;29;20035;-81
2023/08/24 02:17:22;;;;;;;5.72;3.50;;;;;;;;;;4956984;28;20042;-81
2023/08/24 02:19:47;;;;;;;10.57;3.63;;;;;;;;;;4923351;29;20111;-82
2023/08/24 02:22:13;;;;;;;10.93;3.85;;;;;;;;;;4955756;28;20042;-82
2023/08/24 02:24:39;;;;;;;5.28;3.60;;;;;;;;;;4923483;29;20122;-82
2023/08/24 02:27:04;;;;;;;7.53;3.90;;;;;;;;;;4923903;29;20035;-82
2023/08/24 02:29:30;;;;;;;10.40;3.72;;;;;;;;;;4942231;29;20027;-81
2023/08/24 02:31:55;;;;;;;9.88;4.05;;;;;;;;;;4956668;28;20136;-80
2023/08/24 02:34:21;;;;;;;6.82;3.90;;;;;;;;;;4909616;29;20031;-81
2023/08/24 02:36:50;;;;;;;9.75;4.20;;;;;;;;;;4925249;29;20039;-81
2023/08/24 02:39:16;;;;;;;17.23;4.15;;;;;;;;;;4972549;28;20031;-82
2023/08/24 02:41:42;;;;;;;9.07;4.45;;;;;;;;;;4940892;28;20027;-82
2023/08/24 02:44:08;;;;;;;13.30;7.00;;;;;;;;;;4942700;29;20040;-82
2023/08/24 02:46:33;;;;;;;11.15;5.47;;;;;;;;;;4941634;29;20082;-82
2023/08/24 02:49:00;;;;;;;12.30;4.30;;;;;;;;;;4924285;29;20043;-82
2023/08/24 02:51:26;;;;;;;6.80;3.30;;;;;;;;;;4925026;29;20043;-82
2023/08/24 02:53:51;;;;;;;10.52;4.10;;;;;;;;;;4957112;29;20035;-82
2023/08/24 02:56:19;;;;;;;8.48;4.03;;;;;;;;;;4930103;29;20400;-81
2023/08/24 02:58:45;;;;;;;7.07;4.07;;;;;;;;;;4926631;29;20028;-82
2023/08/24 03:01:11;;;;;;;8.85;4.97;;;;;;;;;;4946371;29;20027;-81
2023/08/24 03:03:38;;;;;;;11.90;4.40;;;;;;;;;;4954638;29;20056;-81
2023/08/24 03:06:05;;;;;;;7.65;4.43;;;;;;;;;;4943314;29;20032;-82
2023/08/24 03:08:31;;;;;;;12.80;4.03;;;;;;;;;;4941656;29;20083;-81
2023/08/24 03:10:58;;;;;;;10.50;4.20;;;;;;;;;;4973835;28;20027;-81
2023/08/24 03:13:24;;;;;;;9.77;3.80;;;;;;;;;;4941411;29;20036;-82
2023/08/24 03:15:52;;;;;;;6.00;3.95;;;;;;;;;;4939820;29;20099;-81
2023/08/24 03:18:18;;;;;;;8.82;4.72;;;;;;;;;;4961873;29;20024;-81
2023/08/24 03:20:44;;;;;;;13.35;5.65;;;;;;;;;;4984243;28;20034;-83
2023/08/24 03:23:10;;;;;;;12.70;6.22;;;;;;;;;;4954879;29;20034;-80
2023/08/24 03:25:36;;;;;;;9.48;4.57;;;;;;;;;;4950770;29;20035;-82
2023/08/24 03:28:02;;;;;;;12.95;4.90;;;;;;;;;;4966938;28;20035;-81
2023/08/24 03:30:28;;;;;;;9.13;4.43;;;;;;;;;;4954310;29;20035;-81
2023/08/24 03:32:54;;;;;;;10.77;4.00;;;;;;;;;;4940070;29;20046;-81
2023/08/24 03:35:22;;;;;;;12.43;4.13;;;;;;;;;;4930825;29;20036;-82
2023/08/24 03:37:48;;;;;;;11.55;4.05;;;;;;;;;;4942062;29;20036;-82
2023/08/24 03:40:13;;;;;;;12.68;4.43;;;;;;;;;;4941482;29;20032;-81
2023/08/24 03:42:39;;;;;;;11.05;4.47;;;;;;;;;;4942937;29;20083;-81
2023/08/24 03:45:05;;;;;;;13.93;4.30;;;;;;;;;;4944629;29;20031;-81
2023/08/24 03:47:31;;;;;;;8.20;4.35;;;;;;;;;;4947451;29;20027;-82
2023/08/24 03:49:57;;;;;;;7.35;4.13;;;;;;;;;;4934199;29;20050;-81
2023/08/24 03:52:23;;;;;;;7.72;4.10;;;;;;;;;;4947945;29;20039;-83
2023/08/24 03:54:48;;;;;;;9.18;4.50;;;;;;;;;;4944246;29;20096;-83
2023/08/24 03:57:15;;;;;;;7.40;4.13;;;;;;;;;;4941174;29;20110;-83
2023/08/24 03:59:40;;;;;;;10.10;4.72;;;;;;;;;;4926059;29;20027;-84
2023/08/24 04:02:06;;;;;;;9.38;4.72;;;;;;;;;;4946691;29;20075;-83
2023/08/24 04:04:31;;;;;;;9.55;4.45;;;;;;;;;;4962176;28;20483;-81
2023/08/24 04:06:57;;;;;;;8.02;4.15;;;;;;;;;;4947767;29;20028;-83
2023/08/24 04:09:26;;;;;;;7.40;4.47;;;;;;;;;;4954340;29;20051;-81
2023/08/24 04:11:52;;;;;;;10.48;4.50;;;;;;;;;;4941036;29;20035;-82
2023/08/24 04:14:17;;;;;;;11.60;4.60;;;;;;;;;;5012113;23;20062;-78
2023/08/24 04:16:43;;;;;;;11.20;4.85;;;;;;;;;;4976329;28;20101;-78
2023/08/24 04:19:08;;;;;;;10.77;4.97;;;;;;;;;;4956548;29;20037;-78
2023/08/24 04:21:34;;;;;;;15.80;5.60;;;;;;;;;;4973049;29;20023;-78
2023/08/24 04:24:00;;;;;;;11.40;5.18;;;;;;;;;;4968984;28;20039;-78
2023/08/24 04:26:26;;;;;;;12.15;5.47;;;;;;;;;;4971206;29;20050;-79
2023/08/24 04:28:51;;;;;;;10.75;5.70;;;;;;;;;;4968920;28;20031;-77
2023/08/24 04:31:17;;;;;;;15.30;7.07;;;;;;;;;;4937130;29;20046;-77
2023/08/24 04:33:43;;;;;;;9.65;4.60;;;;;;;;;;4971180;29;20027;-78
2023/08/24 04:36:08;;;;;;;11.75;5.13;;;;;;;;;;4953054;29;20382;-78
2023/08/24 04:38:34;;;;;;;9.48;4.72;;;;;;;;;;4967375;28;20110;-79
2023/08/24 04:41:00;;;;;;;7.43;4.30;;;;;;;;;;4966285;29;20027;-78
2023/08/24 04:43:26;;;;;;;10.32;4.65;;;;;;;;;;4951641;29;20035;-78
2023/08/24 04:45:53;;;;;;;8.95;4.80;;;;;;;;;;4968090;28;20031;-77
2023/08/24 04:48:19;;;;;;;11.52;4.70;;;;;;;;;;4951326;29;20089;-78
2023/08/24 04:50:45;;;;;;;9.38;4.45;;;;;;;;;;4965694;28;20035;-77
2023/08/24 04:53:14;;;;;;;7.95;4.60;;;;;;;;;;4967472;29;20038;-79
2023/08/24 04:55:40;;;;;;;9.98;4.97;;;;;;;;;;4954892;29;20042;-78
2023/08/24 04:58:10;;;;;;;8.65;5.10;;;;;;;;;;4973984;29;20089;-79
2023/08/24 05:00:36;;;;;;;7.40;4.88;;;;;;;;;;4976574;29;20059;-79
2023/08/24 05:03:02;;;;;;;10.40;4.53;;;;;;;;;;4971319;28;20031;-78
2023/08/24 05:05:31;;;;;;;8.82;4.97;;;;;;;;;;4947538;29;20046;-77
2023/08/24 05:07:57;;;;;;;9.90;4.90;;;;;;;;;;4962392;29;20118;-78
2023/08/24 05:10:22;;;;;;;15.07;5.35;;;;;;;;;;4961522;29;20070;-77
2023/08/24 05:12:49;;;;;;;8.73;5.43;;;;;;;;;;4942696;29;20031;-77
2023/08/24 05:15:14;;;;;;;9.88;5.40;;;;;;;;;;4941054;29;20118;-77
2023/08/24 05:17:40;;;;;;;11.18;5.13;;;;;;;;;;4958535;28;20035;-78
2023/08/24 05:20:12;;;;;;;7.93;4.80;;;;;;;;;;4962909;28;20065;-78
2023/08/24 05:22:40;;;;;;;10.60;5.43;;;;;;;;;;4962910;29;20360;-78
2023/08/24 05:25:06;;;;;;;;;;;;;;;;;;4946341;29;20399;-77
2023/08/24 05:27:31;;;;;;;11.93;5.25;;;;;;;;;;4926081;29;19914;-78
2023/08/24 05:29:57;;;;;;;9.32;5.00;;;;;;;;;;4976637;28;20046;-80
2023/08/24 05:32:23;;;;;;;13.63;6.40;;;;;;;;;;4958335;29;20114;-77
2023/08/24 05:34:49;;;;;;;10.13;5.43;;;;;;;;;;4961953;29;20031;-77
2023/08/24 05:37:15;;;;;;;7.60;5.10;;;;;;;;;;4947133;29;20042;-78
2023/08/24 05:39:40;;;;;;;10.77;5.45;;;;;;;;;;4961821;29;20112;-77
2023/08/24 05:42:06;;;;;;;10.00;5.65;;;;;;;;;;4948741;29;20034;-78
2023/08/24 05:44:31;;;;;;;9.48;5.25;;;;;;;;;;4972133;29;20043;-78
2023/08/24 05:46:57;;;;;;;7.22;4.65;;;;;;;;;;4958729;29;20058;-77
2023/08/24 05:49:23;;;;;;;7.95;4.70;;;;;;;;;;4958480;29;20104;-78
2023/08/24 05:51:52;;;;;;;9.38;4.82;;;;;;;;;;4956058;29;20050;-78
2023/08/24 05:54:18;;;;;;;10.63;5.57;;;;;;;;;;4947232;29;20063;-77
2023/08/24 05:56:44;;;;;;;8.25;4.63;;;;;;;;;;4958747;28;20371;-77
2023/08/24 05:59:10;;;;;;;8.85;4.80;;;;;;;;;;4959131;29;20046;-77
2023/08/24 06:01:38;;;;;;;10.68;6.05;;;;;;;;;;4958886;28;20410;-77
2023/08/24 06:04:07;;;;;;;9.88;5.13;;;;;;;;;;4974355;28;20463;-77
2023/08/24 06:06:32;;;;;;;7.80;4.97;;;;;;;;;;4957722;29;20032;-77
2023/08/24 06:08:58;;;;;;;11.43;5.20;;;;;;;;;;4959686;28;20098;-77
2023/08/24 06:11:23;;;;;;;12.00;5.68;;;;;;;;;;4959550;29;20094;-77
2023/08/24 06:13:49;;;;;;;11.32;5.25;;;;;;;;;;4959735;28;20557;-77
2023/08/24 06:16:15;;;;;;;10.38;4.93;;;;;;;;;;4943244;29;20035;-78
2023/08/24 06:18:40;;;;;;;11.05;4.90;;;;;;;;;;4965043;29;20414;-78
2023/08/24 06:21:08;;;;;;;13.35;5.10;;;;;;;;;;4967228;28;20037;-78
2023/08/24 06:23:33;;;;;;;10.52;5.03;;;;;;;;;;4965890;28;20035;-79
2023/08/24 06:26:01;;;;;;;10.57;4.50;;;;;;;;;;4935042;29;20043;-78
2023/08/24 06:28:27;;;;;;;14.23;5.47;;;;;;;;;;4949948;29;20054;-78
2023/08/24 06:30:56;;;;;;;8.32;4.68;;;;;;;;;;4950935;29;20034;-78
2023/08/24 06:33:26;;;;;;;11.27;4.85;;;;;;;;;;4950516;29;20035;-78
2023/08/24 06:35:52;;;;;;;9.25;4.82;;;;;;;;;;4950196;29;20082;-78
2023/08/24 06:38:17;;;;;;;7.55;4.82;;;;;;;;;;4961102;29;20043;-78
2023/08/24 06:40:43;;;;;;;11.63;7.00;;;;;;;;;;4945937;29;20034;-78
2023/08/24 06:43:09;;;;;;;9.73;4.35;;;;;;;;;;4946390;29;20035;-79
2023/08/24 06:45:36;;;;;;;8.40;4.28;;;;;;;;;;4963654;28;20051;-78
2023/08/24 06:48:02;;;;;;;7.65;4.25;;;;;;;;;;4945428;29;20106;-78
2023/08/24 06:50:28;;;;;;;6.30;4.40;;;;;;;;;;4966720;28;20477;-78
2023/08/24 06:52:53;;;;;;;11.63;4.22;;;;;;;;;;4967804;28;20046;-77
2023/08/24 06:55:20;;;;;;;5.15;3.67;;;;;;;;;;4945598;29;20035;-77
2023/08/24 06:57:48;;;;;;;15.00;3.60;;;;;;;;;;4958154;29;20459;-77
2023/08/24 07:00:14;;;;;;;9.88;3.63;;;;;;;;;;4963729;29;20028;-78
2023/08/24 07:02:40;;;;;;;9.32;4.03;;;;;;;;;;4968879;28;20027;-78
2023/08/24 07:05:15;;;;;;;10.07;4.20;;;;;;;;;;4967670;28;20039;-78
2023/08/24 07:07:44;;;;;;;7.03;3.70;;;;;;;;;;4952032;29;20094;-78
2023/08/24 07:10:10;;;;;;;7.63;3.70;;;;;;;;;;4967308;28;20491;-79
2023/08/24 07:12:41;;;;;;;7.80;3.58;;;;;;;;;;4951175;29;20035;-80
2023/08/24 07:15:11;;;;;;;12.93;4.05;;;;;;;;;;4967506;28;20070;-77
2023/08/24 07:17:36;;;;;;;7.93;3.55;;;;;;;;;;4948388;29;20043;-78
2023/08/24 07:20:05;;;;;;;6.88;3.50;;;;;;;;;;4967506;29;20046;-79
2023/08/24 07:22:30;;;;;;;8.70;3.67;;;;;;;;;;4965468;28;20034;-77
2023/08/24 07:24:56;;;;;;;8.45;3.92;;;;;;;;;;4968766;29;20031;-77
2023/08/24 07:27:21;;;;;;;9.32;3.03;;;;;;;;;;4968407;29;20026;-78
2023/08/24 07:29:47;;;;;;;8.38;3.40;;;;;;;;;;4953678;29;20039;-78
2023/08/24 07:32:13;;;;;;;18.55;4.45;;;;;;;;;;4949385;29;20079;-77
2023/08/24 07:34:38;;;;;;;7.28;3.33;;;;;;;;;;4965219;28;20051;-78
2023/08/24 07:37:04;;;;;;;10.02;3.65;;;;;;;;;;4968186;29;20058;-78
2023/08/24 07:39:30;;;;;;;7.88;3.17;;;;;;;;;;4969519;29;20034;-78
2023/08/24 07:41:58;;;;;;;7.72;3.20;;;;;;;;;;4953664;29;20281;-77
2023/08/24 07:44:24;;;;;;;9.82;3.25;;;;;;;;;;4948735;29;20035;-78
2023/08/24 07:46:50;;;;;;;9.23;3.28;;;;;;;;;;4958572;28;20397;-77
2023/08/24 07:49:15;;;;;;;11.60;3.10;;;;;;;;;;4957176;29;20504;-77
2023/08/24 07:51:42;;;;;;;9.15;2.90;;;;;;;;;;4935291;29;20039;-78
2023/08/24 07:54:08;;;;;;;9.38;3.35;;;;;;;;;;4971023;28;20046;-78
2023/08/24 07:56:34;;;;;;;6.85;2.92;;;;;;;;;;4956055;29;20110;-78
2023/08/24 07:59:00;;;;;;;9.43;3.30;;;;;;;;;;4972019;29;20244;-78
2023/08/24 08:01:25;;;;;;;9.10;3.10;;;;;;;;;;4971099;29;20059;-79
2023/08/24 08:03:51;;;;;;;8.48;2.90;;;;;;;;;;4953616;29;20039;-78
2023/08/24 08:06:17;;;;;;;8.27;2.75;;;;;;;;;;4951641;29;20083;-77
2023/08/24 08:08:44;;;;;;;9.48;3.15;;;;;;;;;;4966931;29;20075;-79
2023/08/24 08:11:10;;;;;;;8.60;3.00;;;;;;;;;;4951450;29;20042;-78
2023/08/24 08:13:36;;;;;;;5.60;2.70;;;;;;;;;;4968792;28;20035;-79
2023/08/24 08:16:03;;;;;;;9.55;3.33;;;;;;;;;;4968080;28;20047;-78
2023/08/24 08:18:29;;;;;;;10.50;2.53;;;;;;;;;;4969121;29;20032;-78
2023/08/24 08:20:54;;;;;;;5.13;2.60;;;;;;;;;;4973980;29;20038;-78
2023/08/24 08:23:20;;;;;;;9.07;2.50;;;;;;;;;;4957752;29;20090;-78
2023/08/24 08:25:46;;;;;;;7.90;2.63;;;;;;;;;;4967326;29;20043;-78
2023/08/24 08:28:12;;;;;;;5.75;2.30;;;;;;;;;;4948914;29;20039;-80
2023/08/24 08:30:38;;;;;;;11.07;3.58;;;;;;;;;;4949937;29;20173;-78
2023/08/24 08:33:04;;;;;;;14.23;2.90;;;;;;;;;;4961877;29;20086;-79
2023/08/24 08:35:30;;;;;;;7.20;2.50;;;;;;;;;;4963233;29;20030;-77
2023/08/24 08:37:55;;;;;;;6.82;2.13;;;;;;;;;;4952017;29;20095;-79
2023/08/24 08:40:21;;;;;;;8.65;2.30;;;;;;;;;;4951188;29;20028;-78
2023/08/24 08:42:47;;;;;;;8.45;2.50;;;;;;;;;;4964407;28;20403;-78
2023/08/24 08:45:13;;;;;;;7.35;2.90;;;;;;;;;;4952408;29;20118;-78
2023/08/24 08:47:41;;;;;;;6.93;2.60;;;;;;;;;;4968059;28;20059;-78
2023/08/24 08:50:08;;;;;;;8.77;2.53;;;;;;;;;;4955184;29;20043;-79
2023/08/24 08:52:36;;;;;;;6.47;2.22;;;;;;;;;;4969054;28;20031;-78
2023/08/24 08:55:06;;;;;;;6.18;2.25;;;;;;;;;;4962471;29;20036;-78
2023/08/24 08:57:32;;;;;;;8.18;2.30;;;;;;;;;;4942655;29;20174;-78
2023/08/24 08:59:58;;;;;;;7.13;2.50;;;;;;;;;;4933282;29;20031;-79
2023/08/24 09:02:24;;;;;;;6.00;2.20;;;;;;;;;;4978875;28;20110;-77
2023/08/24 09:04:50;;;;;;;7.97;2.45;;;;;;;;;;4958510;29;20035;-78
2023/08/24 09:07:16;;;;;;;5.35;2.53;;;;;;;;;;4961181;29;20463;-78
2023/08/24 09:09:43;;;;;;;8.05;2.45;;;;;;;;;;4965281;28;20038;-78
2023/08/24 09:12:08;;;;;;;10.68;2.17;;;;;;;;;;4945426;29;20031;-77
2023/08/24 09:14:35;;;;;;;4.82;2.08;;;;;;;;;;4944985;29;20032;-78
2023/08/24 09:17:00;;;;;;;7.47;2.47;;;;;;;;;;4966727;29;20066;-78
2023/08/24 09:19:30;;;;;;;5.38;2.40;;;;;;;;;;4950506;29;20106;-78
2023/08/24 09:22:00;;;;;;;6.18;2.22;;;;;;;;;;4965410;29;20037;-78
2023/08/24 09:24:33;;;;;;;6.63;2.63;;;;;;;;;;4974787;28;20568;-77
2023/08/24 09:26:59;;;;;;;11.57;2.45;;;;;;;;;;4960315;29;20042;-79
2023/08/24 09:29:25;;;;;;;7.15;2.45;;;;;;;;;;4952491;29;20042;-79
2023/08/24 09:31:51;;;;;;;7.80;2.65;;;;;;;;;;4967415;28;20054;-80
2023/08/24 09:34:20;;;;;;;9.10;2.60;;;;;;;;;;4932271;29;20115;-78
2023/08/24 09:36:46;;;;;;;12.85;2.50;;;;;;;;;;4963074;29;20514;-78
2023/08/24 09:39:16;;;;;;;13.48;2.80;;;;;;;;;;4945505;29;20062;-78
2023/08/24 09:41:45;;;;;;;9.60;2.63;;;;;;;;;;4964374;28;20032;-79
2023/08/24 09:44:14;;;;;;;6.47;2.42;;;;;;;;;;4965031;29;20026;-78
2023/08/24 09:46:43;;;;;;;9.60;2.58;;;;;;;;;;4970810;29;20126;-78
2023/08/24 09:49:10;;;;;;;10.38;2.67;;;;;;;;;;4945004;29;20127;-78
2023/08/24 09:51:38;;;;;;;8.68;2.40;;;;;;;;;;4963836;29;20120;-78
2023/08/24 09:54:08;;;;;;;9.25;2.55;;;;;;;;;;4933840;29;20038;-78
2023/08/24 09:56:37;;;;;;;7.95;2.85;;;;;;;;;;4962158;28;20094;-80
2023/08/24 09:59:13;;;;;;;11.07;2.97;;;;;;;;;;4944013;29;20131;-78
2023/08/24 10:01:43;;;;;;;10.95;3.03;;;;;;;;;;4947943;29;20031;-78
2023/08/24 10:04:11;;;;;;;5.20;2.50;;;;;;;;;;4946959;29;20115;-78
2023/08/24 10:06:39;;;;;;;6.85;2.50;;;;;;;;;;4965104;28;20041;-78
2023/08/24 10:09:07;;;;;;;6.60;2.70;;;;;;;;;;4961764;29;20054;-78
2023/08/24 10:11:36;;;;;;;6.43;2.17;;;;;;;;;;4963043;28;20027;-79
2023/08/24 10:14:07;;;;;;;8.82;2.38;;;;;;;;;;4963724;28;20035;-78
2023/08/24 10:16:33;;;;;;;14.55;3.15;;;;;;;;;;4947211;29;20031;-78
2023/08/24 10:19:00;;;;;;;5.70;2.30;;;;;;;;;;4947457;29;20375;-79
2023/08/24 10:21:26;;;;;;;4.60;2.10;;;;;;;;;;4946355;29;20110;-79
2023/08/24 10:23:54;;;;;;;6.25;2.30;;;;;;;;;;4963032;29;20368;-79
2023/08/24 10:26:20;;;;;;;7.70;2.20;;;;;;;;;;4962412;28;20386;-79
2023/08/24 10:28:46;;;;;;;7.20;2.50;;;;;;;;;;4929031;29;20070;-79
2023/08/24 10:31:12;;;;;;;10.63;2.20;;;;;;;;;;4966259;29;20055;-78
2023/08/24 10:33:38;;;;;;;11.60;3.55;;;;;;;;;;4950953;29;20069;-78
2023/08/24 10:36:05;;;;;;;8.40;2.70;;;;;;;;;;4952182;29;20051;-78
2023/08/24 10:38:34;;;;;;;11.82;2.67;;;;;;;;;;4969086;28;20047;-79
2023/08/24 10:41:05;;;;;;;9.20;2.53;;;;;;;;;;4969813;29;20038;-79
2023/08/24 10:43:34;;;;;;;8.13;2.30;;;;;;;;;;4945551;29;20046;-78
2023/08/24 10:46:04;;;;;;;10.25;2.45;;;;;;;;;;4932742;29;20398;-79
2023/08/24 10:48:42;;;;;;;5.63;1.90;;;;;;;;;;4951346;29;20031;-80
2023/08/24 10:51:13;;;;;;;8.38;2.35;;;;;;;;;;4953181;29;20046;-79
2023/08/24 10:53:46;;;;;;;8.20;2.42;;;;;;;;;;4933849;29;20114;-79
2023/08/24 10:56:15;;;;;;;6.63;2.70;;;;;;;;;;4964741;28;20031;-78
2023/08/24 10:58:44;;;;;;;7.18;2.30;;;;;;;;;;4955217;29;20051;-79
2023/08/24 11:01:14;;;;;;;12.80;2.25;;;;;;;;;;4936514;29;20039;-80
2023/08/24 11:03:40;;;;;;;5.05;2.50;;;;;;;;;;4964017;28;20438;-79
2023/08/24 11:06:17;;;;;;;5.72;2.70;;;;;;;;;;4966758;29;20042;-79
2023/08/24 11:08:50;;;;;;;4.53;2.22;;;;;;;;;;4972082;29;20041;-79
2023/08/24 11:11:20;;;;;;;5.15;1.92;;;;;;;;;;4958762;29;20049;-79
2023/08/24 11:14:05;;;;;;;6.80;2.80;;;;;;;;;;4957701;29;20039;-79
2023/08/24 11:16:42;;;;;;;7.35;2.38;;;;;;;;;;4958837;29;20062;-80
2023/08/24 11:19:09;;;;;;;6.95;2.10;;;;;;;;;;4973330;29;20034;-79
2023/08/24 11:21:41;;;;;;;6.35;2.22;;;;;;;;;;4956086;29;20035;-79
2023/08/24 11:24:09;;;;;;;5.45;2.40;;;;;;;;;;4973986;28;20051;-80
2023/08/24 11:26:39;;;;;;;6.95;2.20;;;;;;;;;;4941769;29;20046;-78
2023/08/24 11:29:05;;;;;;;5.30;2.80;;;;;;;;;;4950961;29;20023;-79
2023/08/24 11:31:31;;;;;;;4.57;2.53;;;;;;;;;;4955208;29;20030;-78
2023/08/24 11:33:56;;;;;;;6.65;2.38;;;;;;;;;;4968913;29;20035;-79
2023/08/24 11:36:25;;;;;;;7.25;3.33;;;;;;;;;;4970360;29;20042;-79
2023/08/24 11:38:53;;;;;;;8.98;2.72;;;;;;;;;;4951437;29;20042;-79
2023/08/24 11:41:21;;;;;;;10.35;2.50;;;;;;;;;;4952691;29;20031;-79
2023/08/24 11:43:47;;;;;;;7.30;2.60;;;;;;;;;;4966485;29;20037;-79
2023/08/24 11:46:17;;;;;;;4.75;2.38;;;;;;;;;;4964531;28;20049;-79
2023/08/24 11:48:47;;;;;;;5.05;2.40;;;;;;;;;;4954525;29;20045;-80
2023/08/24 11:51:14;;;;;;;4.97;2.30;;;;;;;;;;4968212;29;20035;-79
2023/08/24 11:53:43;;;;;;;6.05;2.63;;;;;;;;;;4967609;29;20031;-79
2023/08/24 11:56:10;;;;;;;4.55;2.75;;;;;;;;;;4952604;29;20035;-79
2023/08/24 11:58:47;;;;;;;7.68;2.08;;;;;;;;;;4951255;29;20027;-79
2023/08/24 12:01:15;;;;;;;6.53;2.70;;;;;;;;;;4966862;29;20096;-78
2023/08/24 12:03:41;;;;;;;5.80;2.53;;;;;;;;;;4947103;29;20035;-78
2023/08/24 12:06:14;;;;;;;6.25;2.60;;;;;;;;;;4963182;29;20094;-78
2023/08/24 12:08:41;;;;;;;6.72;2.28;;;;;;;;;;4949938;29;20043;-78
2023/08/24 12:11:14;;;;;;;9.00;2.75;;;;;;;;;;4952512;29;20035;-80
2023/08/24 12:13:45;;;;;;;7.25;2.17;;;;;;;;;;4970177;29;20035;-80
2023/08/24 12:16:12;;;;;;;4.60;2.40;;;;;;;;;;4956033;29;20034;-80
2023/08/24 12:18:55;;;;;;;5.10;2.45;;;;;;;;;;4972749;29;20043;-79
2023/08/24 12:21:23;;;;;;;5.88;2.42;;;;;;;;;;4956041;29;20047;-80
2023/08/24 12:23:59;;;;;;;6.68;1.98;;;;;;;;;;4975382;29;20049;-80
2023/08/24 12:26:25;;;;;;;7.75;2.40;;;;;;;;;;4959292;29;20039;-79
2023/08/24 12:28:54;;;;;;;5.28;2.60;;;;;;;;;;4970797;29;20066;-78
2023/08/24 12:31:20;;;;;;;10.02;2.72;;;;;;;;;;4951239;29;20043;-80
2023/08/24 12:33:57;;;;;;;6.15;2.45;;;;;;;;;;4949473;29;20059;-78
2023/08/24 12:36:23;;;;;;;6.53;2.58;;;;;;;;;;4949012;29;20039;-79
2023/08/24 12:38:49;;;;;;;6.35;2.25;;;;;;;;;;4968324;29;20114;-79
2023/08/24 12:41:14;;;;;;;10.50;2.80;;;;;;;;;;4954175;29;20524;-81
2023/08/24 12:43:40;;;;;;;7.82;3.28;;;;;;;;;;4957054;29;20063;-81
2023/08/24 12:46:06;;;;;;;9.88;2.92;;;;;;;;;;4956532;29;20046;-80
2023/08/24 12:48:33;;;;;;;8.25;2.70;;;;;;;;;;4957748;29;20039;-80
2023/08/24 12:50:59;;;;;;;13.82;2.78;;;;;;;;;;4940857;29;20031;-80
2023/08/24 12:53:26;;;;;;;7.00;2.22;;;;;;;;;;4973444;28;20039;-79
2023/08/24 12:55:55;;;;;;;4.57;2.17;;;;;;;;;;4955369;29;20264;-80
2023/08/24 12:58:21;;;;;;;9.57;2.40;;;;;;;;;;4968631;29;20054;-80
2023/08/24 13:00:48;;;;;;;6.10;2.28;;;;;;;;;;4968224;28;20142;-80
2023/08/24 13:03:14;;;;;;;4.93;2.10;;;;;;;;;;4969856;28;20362;-79
2023/08/24 13:05:40;;;;;;;5.97;2.55;;;;;;;;;;4969704;28;20111;-78
2023/08/24 13:08:05;;;;;;;9.00;2.50;;;;;;;;;;4970412;28;20035;-79
2023/08/24 13:10:31;;;;;;;10.70;2.30;;;;;;;;;;4949929;29;20035;-79
2023/08/24 13:12:57;;;;;;;6.53;2.50;;;;;;;;;;4963231;28;20490;-80
2023/08/24 13:15:23;;;;;;;8.50;2.40;;;;;;;;;;4933922;29;20039;-80
2023/08/24 13:17:49;;;;;;;7.93;2.50;;;;;;;;;;4972250;29;20031;-79
2023/08/24 13:20:16;;;;;;;5.07;2.28;;;;;;;;;;4959733;29;20074;-79
2023/08/24 13:22:41;;;;;;;7.97;2.33;;;;;;;;;;4959031;29;20031;-78
2023/08/24 13:25:08;;;;;;;5.28;2.45;;;;;;;;;;4957690;29;20070;-78
2023/08/24 13:27:37;;;;;;;7.20;2.28;;;;;;;;;;4975039;28;20039;-80
2023/08/24 13:30:02;;;;;;;6.60;2.85;;;;;;;;;;4970848;28;20046;-79
2023/08/24 13:32:28;;;;;;;6.10;2.33;;;;;;;;;;4952863;28;20127;-79
2023/08/24 13:34:55;;;;;;;8.38;2.75;;;;;;;;;;4969150;28;20024;-80
2023/08/24 13:37:25;;;;;;;10.35;2.90;;;;;;;;;;4969510;29;20050;-80
2023/08/24 13:39:52;;;;;;;8.25;2.90;;;;;;;;;;4954387;29;20035;-81
2023/08/24 13:42:18;;;;;;;6.00;2.75;;;;;;;;;;4972380;28;20087;-80
2023/08/24 13:44:45;;;;;;;7.53;2.50;;;;;;;;;;4955102;29;20035;-80
2023/08/24 13:47:10;;;;;;;5.97;2.38;;;;;;;;;;4955868;29;20055;-81
2023/08/24 13:49:37;;;;;;;11.98;3.03;;;;;;;;;;4984918;28;20178;-80
2023/08/24 13:52:04;;;;;;;9.18;3.20;;;;;;;;;;4960522;29;20047;-78
2023/08/24 13:54:30;;;;;;;6.75;2.50;;;;;;;;;;4978319;29;20038;-79
2023/08/24 13:56:56;;;;;;;7.05;2.35;;;;;;;;;;4976912;29;20049;-78
2023/08/24 13:59:22;;;;;;;13.32;2.70;;;;;;;;;;4945021;29;20078;-80
2023/08/24 14:01:48;;;;;;;5.53;2.58;;;;;;;;;;4979151;29;20026;-80
2023/08/24 14:04:15;;;;;;;3.58;1.98;;;;;;;;;;4978227;28;20035;-80
2023/08/24 14:06:45;;;;;;;6.63;2.22;;;;;;;;;;4972320;29;20035;-79
2023/08/24 14:09:11;;;;;;;5.95;2.58;;;;;;;;;;4952611;29;20034;-79
2023/08/24 14:11:37;;;;;;;6.10;2.25;;;;;;;;;;4969341;29;20035;-79
2023/08/24 14:14:03;;;;;;;9.73;2.45;;;;;;;;;;4952531;29;20082;-80
2023/08/24 14:16:28;;;;;;;9.93;4.78;;;;;;;;;;4953596;29;20111;-83
2023/08/24 14:18:55;;;;;;;13.40;2.63;;;;;;;;;;4972372;28;20034;-81
2023/08/24 14:21:20;;;;;;;6.68;2.42;;;;;;;;;;4973871;29;20031;-79
2023/08/24 14:23:46;;;;;;;5.40;2.38;;;;;;;;;;4969639;29;20043;-81
2023/08/24 14:26:12;;;;;;;6.28;2.22;;;;;;;;;;4967668;29;20042;-81
2023/08/24 14:28:47;;;;;;;8.98;2.55;;;;;;;;;;4952662;29;20086;-80
2023/08/24 14:31:14;;;;;;;8.70;3.00;;;;;;;;;;4969387;28;20552;-81
2023/08/24 14:33:40;;;;;;;8.25;3.63;;;;;;;;;;4954597;29;20130;-81
2023/08/24 14:36:06;;;;;;;9.82;2.58;;;;;;;;;;4970803;28;20066;-82
2023/08/24 14:38:32;;;;;;;6.45;4.43;;;;;;;;;;4971858;29;20091;-81